createdAt,value
2019-03-28T00:02:01.142Z,5.40
2019-03-28T00:04:27.246Z,5.38
2019-03-28T00:06:53.477Z,5.37
2019-03-28T00:09:19.884Z,5.39
2019-03-28T00:11:46.217Z,5.37
2019-03-28T00:14:12.574Z,5.36
2019-03-28T00:16:38.766Z,5.37
2019-03-28T00:19:05.135Z,5.38
2019-03-28T00:21:31.351Z,5.37
2019-03-28T00:23:59.372Z,5.38
2019-03-28T00:26:30.393Z,5.36
2019-03-28T00:28:53.631Z,5.36
2019-03-28T00:31:21.405Z,5.35
2019-03-28T00:33:47.847Z,5.33
2019-03-28T00:36:13.997Z,5.32
2019-03-28T00:38:40.190Z,5.30
2019-03-28T00:41:06.439Z,5.26
2019-03-28T00:43:32.661Z,5.21
2019-03-28T00:45:58.795Z,5.21
2019-03-28T00:48:24.967Z,5.20
2019-03-28T00:50:51.116Z,5.15
2019-03-28T00:53:17.343Z,5.12
2019-03-28T00:55:43.527Z,5.09
2019-03-28T00:58:09.699Z,5.12
2019-03-28T01:00:36.055Z,5.12
2019-03-28T01:03:02.324Z,5.16
2019-03-28T01:05:29.589Z,5.17
2019-03-28T01:07:55.768Z,5.16
2019-03-28T01:10:22.219Z,5.15
2019-03-28T01:12:48.564Z,5.17
2019-03-28T01:15:14.732Z,5.19
2019-03-28T01:17:40.946Z,5.20
2019-03-28T01:20:07.906Z,5.18
2019-03-28T01:22:34.235Z,5.17
2019-03-28T01:25:00.437Z,5.19
2019-03-28T01:27:26.634Z,5.19
2019-03-28T01:29:52.755Z,5.21
2019-03-28T01:32:18.924Z,5.23
2019-03-28T01:34:45.147Z,5.22
2019-03-28T01:37:11.311Z,5.22
2019-03-28T01:39:37.475Z,5.21
2019-03-28T01:42:03.697Z,5.23
2019-03-28T01:44:29.790Z,5.23
2019-03-28T01:46:56.033Z,5.23
2019-03-28T01:49:22.196Z,5.22
2019-03-28T01:51:48.394Z,5.20
2019-03-28T01:54:14.532Z,5.18
2019-03-28T01:56:40.757Z,5.18
2019-03-28T01:59:06.857Z,5.12
2019-03-28T02:01:33.202Z,5.07
2019-03-28T02:03:59.302Z,5.05
2019-03-28T02:06:25.534Z,5.02
2019-03-28T02:08:51.800Z,5.02
2019-03-28T02:11:18.067Z,4.99
2019-03-28T02:13:44.374Z,4.98
2019-03-28T02:16:10.563Z,4.95
2019-03-28T02:18:36.881Z,4.94
2019-03-28T02:21:03.090Z,4.93
2019-03-28T02:23:29.250Z,4.93
2019-03-28T02:25:55.462Z,4.92
2019-03-28T02:28:21.578Z,4.86
2019-03-28T02:30:47.780Z,4.87
2019-03-28T02:33:14.902Z,4.87
2019-03-28T02:35:41.156Z,4.85
2019-03-28T02:38:07.280Z,4.85
2019-03-28T02:40:33.497Z,4.85
2019-03-28T02:42:59.617Z,4.84
2019-03-28T02:45:25.807Z,4.84
2019-03-28T02:47:52.131Z,4.83
2019-03-28T02:50:18.306Z,4.81
2019-03-28T02:52:44.459Z,4.79
2019-03-28T02:55:10.817Z,4.79
2019-03-28T02:57:41.635Z,4.78
2019-03-28T03:00:06.076Z,4.78
2019-03-28T03:02:32.902Z,4.74
2019-03-28T03:04:59.039Z,4.75
2019-03-28T03:07:25.351Z,4.76
2019-03-28T03:09:51.592Z,4.76
2019-03-28T03:12:17.993Z,4.75
2019-03-28T03:14:44.090Z,4.76
2019-03-28T03:17:10.342Z,4.75
2019-03-28T03:19:36.435Z,4.72
2019-03-28T03:22:03.124Z,4.69
2019-03-28T03:24:29.365Z,4.69
2019-03-28T03:26:55.597Z,4.69
2019-03-28T03:29:21.697Z,4.69
2019-03-28T03:31:47.904Z,4.68
2019-03-28T03:34:14.020Z,4.68
2019-03-28T03:36:40.246Z,4.71
2019-03-28T03:39:07.271Z,4.72
2019-03-28T03:41:33.592Z,4.71
2019-03-28T03:43:59.758Z,4.73
2019-03-28T03:46:25.922Z,4.73
2019-03-28T03:48:52.068Z,4.72
2019-03-28T03:51:18.318Z,4.71
2019-03-28T03:53:44.411Z,4.72
2019-03-28T03:56:10.661Z,4.74
2019-03-28T03:58:36.844Z,4.74
2019-03-28T04:01:03.089Z,4.72
2019-03-28T04:03:29.650Z,4.72
2019-03-28T04:05:56.206Z,4.72
2019-03-28T04:08:22.501Z,4.70
2019-03-28T04:10:48.654Z,4.69
2019-03-28T04:13:14.884Z,4.69
2019-03-28T04:15:41.183Z,4.70
2019-03-28T04:18:07.364Z,4.69
2019-03-28T04:20:33.529Z,4.72
2019-03-28T04:22:59.786Z,4.71
2019-03-28T04:25:25.895Z,4.70
2019-03-28T04:27:52.113Z,4.69
2019-03-28T04:30:18.477Z,4.69
2019-03-28T04:32:44.728Z,4.70
2019-03-28T04:35:10.982Z,4.70
2019-03-28T04:37:37.164Z,4.70
2019-03-28T04:40:05.862Z,4.71
2019-03-28T04:42:32.055Z,4.73
2019-03-28T04:44:58.235Z,4.73
2019-03-28T04:47:24.390Z,4.75
2019-03-28T04:49:50.735Z,4.74
2019-03-28T04:52:16.928Z,4.76
2019-03-28T04:54:43.219Z,4.75
2019-03-28T04:57:09.414Z,4.74
2019-03-28T04:59:35.778Z,4.73
2019-03-28T05:02:03.743Z,4.72
2019-03-28T05:04:30.284Z,4.71
2019-03-28T05:06:56.539Z,4.73
2019-03-28T05:09:23.366Z,4.74
2019-03-28T05:11:49.854Z,4.72
2019-03-28T05:14:16.117Z,4.75
2019-03-28T05:16:42.393Z,4.74
2019-03-28T05:19:08.661Z,4.71
2019-03-28T05:21:34.810Z,4.73
2019-03-28T05:24:01.053Z,4.75
2019-03-28T05:26:27.212Z,4.77
2019-03-28T05:28:57.868Z,4.78
2019-03-28T05:31:21.640Z,4.78
2019-03-28T05:33:47.828Z,4.81
2019-03-28T05:36:13.993Z,4.81
2019-03-28T05:38:40.224Z,4.81
2019-03-28T05:41:06.414Z,4.83
2019-03-28T05:43:32.856Z,4.82
2019-03-28T05:46:00.146Z,4.82
2019-03-28T05:48:26.311Z,4.82
2019-03-28T05:50:52.617Z,4.83
2019-03-28T05:53:18.810Z,4.84
2019-03-28T05:55:45.081Z,4.83
2019-03-28T05:58:11.282Z,4.84
2019-03-28T06:00:39.033Z,4.84
2019-03-28T06:03:07.521Z,4.84
2019-03-28T06:05:33.678Z,4.81
2019-03-28T06:07:59.847Z,4.84
2019-03-28T06:10:26.001Z,4.86
2019-03-28T06:12:52.234Z,4.86
2019-03-28T06:15:18.340Z,4.84
2019-03-28T06:17:44.693Z,4.85
2019-03-28T06:20:11.296Z,4.88
2019-03-28T06:22:37.621Z,4.86
2019-03-28T06:25:05.875Z,4.89
2019-03-28T06:27:32.175Z,4.92
2019-03-28T06:29:58.345Z,4.93
2019-03-28T06:32:24.547Z,4.94
2019-03-28T06:34:50.692Z,4.94
2019-03-28T06:37:16.868Z,4.96
2019-03-28T06:39:43.030Z,4.95
2019-03-28T06:42:09.204Z,4.95
2019-03-28T06:44:35.385Z,4.96
2019-03-28T06:47:01.578Z,4.98
2019-03-28T06:49:27.786Z,5.00
2019-03-28T06:51:54.034Z,5.02
2019-03-28T06:54:20.174Z,4.99
2019-03-28T06:56:46.367Z,5.01
2019-03-28T06:59:13.522Z,5.01
2019-03-28T07:01:39.699Z,5.04
2019-03-28T07:04:05.865Z,5.04
2019-03-28T07:06:32.093Z,5.07
2019-03-28T07:08:58.453Z,5.08
2019-03-28T07:11:24.662Z,5.07
2019-03-28T07:13:50.775Z,5.07
2019-03-28T07:16:16.998Z,5.09
2019-03-28T07:18:43.094Z,5.09
2019-03-28T07:21:09.299Z,5.09
2019-03-28T07:23:35.406Z,5.11
2019-03-28T07:26:01.621Z,5.17
2019-03-28T07:28:27.775Z,5.15
2019-03-28T07:30:53.952Z,5.16
2019-03-28T07:33:20.303Z,5.17
2019-03-28T07:35:46.456Z,5.18
2019-03-28T07:38:12.722Z,5.21
2019-03-28T07:40:38.998Z,5.19
2019-03-28T07:43:05.161Z,5.21
2019-03-28T07:45:34.331Z,5.23
2019-03-28T07:47:59.471Z,5.25
2019-03-28T07:50:25.758Z,5.30
2019-03-28T07:52:52.083Z,5.29
2019-03-28T07:55:18.312Z,5.30
2019-03-28T07:57:44.577Z,5.32
2019-03-28T08:00:14.200Z,5.33
2019-03-28T08:02:40.517Z,5.36
2019-03-28T08:05:08.766Z,5.34
2019-03-28T08:07:44.864Z,5.40
2019-03-28T08:10:06.341Z,5.38
2019-03-28T08:12:32.726Z,5.38
2019-03-28T08:14:58.884Z,5.41
2019-03-28T08:17:25.076Z,5.43
2019-03-28T08:19:51.270Z,5.44
2019-03-28T08:22:17.436Z,5.48
2019-03-28T08:24:43.597Z,5.50
2019-03-28T08:27:09.752Z,5.52
2019-03-28T08:29:35.929Z,5.53
2019-03-28T08:32:04.107Z,5.58
2019-03-28T08:34:31.395Z,5.60
2019-03-28T08:36:59.023Z,5.64
2019-03-28T08:39:26.098Z,5.63
2019-03-28T08:41:52.256Z,5.65
2019-03-28T08:44:22.473Z,5.66
2019-03-28T08:46:47.671Z,5.65
2019-03-28T08:49:13.963Z,5.66
2019-03-28T08:51:40.167Z,5.72
2019-03-28T08:54:06.378Z,5.75
2019-03-28T08:56:32.794Z,5.73
2019-03-28T08:58:59.020Z,5.76
2019-03-28T09:01:25.473Z,5.79
2019-03-28T09:03:51.689Z,5.72
2019-03-28T09:06:17.852Z,5.74
2019-03-28T09:08:44.066Z,5.79
2019-03-28T09:11:10.333Z,5.77
2019-03-28T09:13:36.498Z,5.78
2019-03-28T09:16:02.967Z,5.81
2019-03-28T09:18:29.138Z,5.84
2019-03-28T09:20:55.516Z,5.82
2019-03-28T09:23:21.695Z,5.83
2019-03-28T09:25:47.879Z,5.86
2019-03-28T09:28:14.112Z,5.87
2019-03-28T09:30:48.772Z,5.88
2019-03-28T09:33:09.925Z,5.88
2019-03-28T09:35:36.275Z,5.95
2019-03-28T09:38:03.056Z,6.00
2019-03-28T09:40:29.159Z,6.03
2019-03-28T09:42:55.479Z,6.09
2019-03-28T09:45:21.660Z,6.11
2019-03-28T09:47:47.834Z,6.13
2019-03-28T09:50:14.087Z,6.15
2019-03-28T09:52:40.253Z,6.16
2019-03-28T09:55:06.679Z,6.13
2019-03-28T09:57:33.122Z,6.15
2019-03-28T09:59:59.358Z,6.17
2019-03-28T10:02:25.517Z,6.19
2019-03-28T10:04:51.722Z,6.23
2019-03-28T10:07:19.019Z,6.31
2019-03-28T10:09:45.640Z,6.30
2019-03-28T10:12:11.854Z,6.35
2019-03-28T10:14:38.052Z,6.40
2019-03-28T10:17:04.159Z,6.44
2019-03-28T10:19:31.458Z,6.47
2019-03-28T10:21:57.637Z,6.47
2019-03-28T10:24:23.849Z,6.47
2019-03-28T10:26:50.025Z,6.47
2019-03-28T10:29:16.308Z,6.49
2019-03-28T10:31:42.691Z,6.53
2019-03-28T10:34:08.919Z,6.61
2019-03-28T10:36:35.129Z,6.61
2019-03-28T10:39:01.384Z,6.65
2019-03-28T10:41:29.540Z,6.65
2019-03-28T10:43:55.752Z,6.67
2019-03-28T10:46:22.011Z,6.71
2019-03-28T10:48:48.225Z,6.76
2019-03-28T10:51:14.441Z,6.73
2019-03-28T10:53:40.679Z,6.74
2019-03-28T10:56:20.501Z,6.76
2019-03-28T10:58:35.321Z,6.79
2019-03-28T11:01:01.612Z,6.81
2019-03-28T11:03:27.875Z,6.82
2019-03-28T11:05:54.092Z,6.85
2019-03-28T11:08:20.191Z,6.80
2019-03-28T11:10:46.396Z,6.80
2019-03-28T11:13:12.606Z,6.79
2019-03-28T11:15:38.841Z,6.82
2019-03-28T11:18:06.113Z,6.81
2019-03-28T11:20:33.508Z,6.88
2019-03-28T11:23:02.205Z,6.90
2019-03-28T11:25:27.837Z,6.91
2019-03-28T11:27:53.994Z,7.00
2019-03-28T11:30:20.456Z,7.05
2019-03-28T11:32:46.556Z,7.06
2019-03-28T11:35:13.017Z,7.06
2019-03-28T11:37:39.228Z,7.07
2019-03-28T11:40:09.200Z,7.08
2019-03-28T11:42:34.898Z,7.11
2019-03-28T11:45:01.341Z,7.10
2019-03-28T11:47:28.903Z,7.06
2019-03-28T11:49:55.854Z,7.05
2019-03-28T11:52:22.234Z,7.02
2019-03-28T11:54:48.458Z,6.99
2019-03-28T11:57:15.970Z,7.02
2019-03-28T11:59:42.424Z,7.02
2019-03-28T12:02:19.561Z,6.99
2019-03-28T12:04:38.831Z,6.92
2019-03-28T12:07:05.050Z,6.92
2019-03-28T12:09:31.348Z,6.93
2019-03-28T12:11:57.510Z,6.94
2019-03-28T12:14:23.730Z,6.95
2019-03-28T12:16:49.888Z,6.95
2019-03-28T12:19:17.735Z,7.00
2019-03-28T12:21:44.722Z,7.06
2019-03-28T12:24:10.882Z,7.06
2019-03-28T12:26:37.106Z,7.07
2019-03-28T12:29:05.785Z,7.05
2019-03-28T12:31:33.247Z,7.05
2019-03-28T12:33:59.491Z,7.06
2019-03-28T12:36:25.695Z,7.02
2019-03-28T12:38:51.873Z,7.04
2019-03-28T12:41:18.112Z,7.02
2019-03-28T12:43:44.345Z,7.00
2019-03-28T12:46:10.546Z,7.05
2019-03-28T12:48:36.736Z,7.01
2019-03-28T12:51:02.931Z,7.02
2019-03-28T12:53:29.146Z,7.04
2019-03-28T12:55:55.255Z,7.05
2019-03-28T12:58:22.423Z,7.07
2019-03-28T13:00:48.654Z,7.10
2019-03-28T13:03:14.846Z,7.17
2019-03-28T13:05:41.059Z,7.20
2019-03-28T13:08:07.371Z,7.22
2019-03-28T13:10:33.774Z,7.25
2019-03-28T13:12:59.993Z,7.26
2019-03-28T13:15:26.101Z,7.30
2019-03-28T13:17:52.303Z,7.34
2019-03-28T13:20:21.951Z,7.38
2019-03-28T13:22:46.629Z,7.42
2019-03-28T13:25:12.959Z,7.43
2019-03-28T13:27:39.095Z,7.37
2019-03-28T13:30:10.486Z,7.36
2019-03-28T13:32:42.222Z,7.36
2019-03-28T13:35:06.850Z,7.33
2019-03-28T13:37:33.962Z,7.34
2019-03-28T13:40:00.353Z,7.37
2019-03-28T13:42:26.411Z,7.37
2019-03-28T13:44:52.594Z,7.37
2019-03-28T13:47:18.770Z,7.36
2019-03-28T13:49:44.904Z,7.32
2019-03-28T13:52:11.062Z,7.32
2019-03-28T13:54:37.289Z,7.33
2019-03-28T13:57:03.517Z,7.31
2019-03-28T13:59:29.634Z,7.32
2019-03-28T14:01:55.824Z,7.30
2019-03-28T14:04:21.971Z,7.31
2019-03-28T14:06:48.210Z,7.33
2019-03-28T14:09:14.467Z,7.31
2019-03-28T14:11:40.754Z,7.38
2019-03-28T14:14:07.033Z,7.41
2019-03-28T14:16:33.590Z,7.41
2019-03-28T14:18:59.868Z,7.37
2019-03-28T14:21:26.075Z,7.36
2019-03-28T14:23:52.242Z,7.40
2019-03-28T14:26:18.490Z,7.35
2019-03-28T14:28:44.739Z,7.32
2019-03-28T14:31:10.955Z,7.30
2019-03-28T14:33:37.261Z,7.30
2019-03-28T14:36:03.359Z,7.31
2019-03-28T14:38:31.675Z,7.29
2019-03-28T14:40:58.456Z,7.22
2019-03-28T14:43:25.912Z,7.23
2019-03-28T14:45:52.190Z,7.24
2019-03-28T14:48:18.341Z,7.23
2019-03-28T14:50:44.678Z,7.24
2019-03-28T14:53:10.867Z,7.25
2019-03-28T14:55:38.353Z,7.30
2019-03-28T14:58:04.845Z,7.32
2019-03-28T15:00:47.116Z,7.31
2019-03-28T15:03:25.734Z,7.30
2019-03-28T15:05:44.148Z,7.32
2019-03-28T15:08:10.385Z,7.31
2019-03-28T15:10:36.619Z,7.34
2019-03-28T15:13:02.774Z,7.34
2019-03-28T15:15:29.042Z,7.35
2019-03-28T15:17:55.196Z,7.36
2019-03-28T15:20:21.524Z,7.38
2019-03-28T15:22:47.671Z,7.38
2019-03-28T15:25:14.017Z,7.36
2019-03-28T15:27:40.232Z,7.35
2019-03-28T15:30:07.719Z,7.32
2019-03-28T15:32:34.037Z,7.31
2019-03-28T15:35:00.327Z,7.26
2019-03-28T15:37:26.775Z,7.28
2019-03-28T15:39:52.942Z,7.28
2019-03-28T15:42:19.243Z,7.28
2019-03-28T15:44:45.620Z,7.27
2019-03-28T15:47:11.939Z,7.27
2019-03-28T15:49:38.211Z,7.24
2019-03-28T15:52:05.099Z,7.25
2019-03-28T15:54:31.615Z,7.27
2019-03-28T15:56:58.709Z,7.24
2019-03-28T15:59:25.083Z,7.23
2019-03-28T16:01:51.294Z,7.24
2019-03-28T16:04:17.569Z,7.26
2019-03-28T16:06:43.719Z,7.26
2019-03-28T16:09:09.956Z,7.27
2019-03-28T16:11:36.038Z,7.27
2019-03-28T16:14:02.271Z,7.26
2019-03-28T16:16:28.599Z,7.23
2019-03-28T16:18:55.160Z,7.22
2019-03-28T16:21:21.295Z,7.21
2019-03-28T16:23:47.468Z,7.26
2019-03-28T16:26:13.600Z,7.28
2019-03-28T16:28:40.794Z,7.24
2019-03-28T16:31:07.038Z,7.23
2019-03-28T16:33:33.446Z,7.24
2019-03-28T16:35:59.586Z,7.24
2019-03-28T16:38:25.801Z,7.25
2019-03-28T16:40:51.969Z,7.23
2019-03-28T16:43:18.162Z,7.22
2019-03-28T16:45:44.307Z,7.23
2019-03-28T16:48:10.462Z,7.22
2019-03-28T16:50:36.656Z,7.21
2019-03-28T16:53:03.022Z,7.20
2019-03-28T16:55:29.206Z,7.18
2019-03-28T16:57:55.484Z,7.17
2019-03-28T17:00:25.457Z,7.18
2019-03-28T17:02:51.726Z,7.18
2019-03-28T17:05:17.894Z,7.17
2019-03-28T17:07:44.311Z,7.19
2019-03-28T17:10:33.313Z,7.19
2019-03-28T17:12:59.593Z,7.20
2019-03-28T17:15:25.952Z,7.18
2019-03-28T17:17:53.382Z,7.17
2019-03-28T17:20:20.514Z,7.17
2019-03-28T17:22:46.836Z,7.19
2019-03-28T17:25:14.146Z,7.20
2019-03-28T17:27:40.507Z,7.19
2019-03-28T17:30:07.440Z,7.22
2019-03-28T17:32:38.793Z,7.21
2019-03-28T17:35:05.405Z,7.21
2019-03-28T17:37:31.821Z,7.18
2019-03-28T17:39:57.981Z,7.21
2019-03-28T17:42:24.245Z,7.24
2019-03-28T17:44:50.509Z,7.27
2019-03-28T17:47:16.724Z,7.32
2019-03-28T17:49:42.934Z,7.31
2019-03-28T17:52:09.299Z,7.31
2019-03-28T17:54:35.503Z,7.31
2019-03-28T17:57:01.761Z,7.31
2019-03-28T17:59:27.959Z,7.30
2019-03-28T18:01:54.199Z,7.32
2019-03-28T18:04:23.201Z,7.34
2019-03-28T18:06:49.227Z,7.33
2019-03-28T18:09:15.445Z,7.32
2019-03-28T18:11:41.776Z,7.30
2019-03-28T18:14:08.169Z,7.30
2019-03-28T18:16:34.422Z,7.30
2019-03-28T18:19:00.825Z,7.30
2019-03-28T18:21:26.939Z,7.30
2019-03-28T18:23:53.275Z,7.30
2019-03-28T18:26:19.427Z,7.30
2019-03-28T18:28:45.637Z,7.31
2019-03-28T18:31:12.828Z,7.32
2019-03-28T18:33:39.060Z,7.32
2019-03-28T18:36:05.285Z,7.35
2019-03-28T18:38:31.496Z,7.35
2019-03-28T18:40:57.606Z,7.38
2019-03-28T18:43:24.001Z,7.41
2019-03-28T18:45:50.153Z,7.41
2019-03-28T18:48:28.164Z,7.44
2019-03-28T18:50:45.554Z,7.47
2019-03-28T18:53:11.880Z,7.47
2019-03-28T18:55:38.275Z,7.47
2019-03-28T18:58:05.625Z,7.49
2019-03-28T19:00:32.973Z,7.50
2019-03-28T19:03:01.990Z,7.51
2019-03-28T19:05:29.074Z,7.50
2019-03-28T19:07:55.357Z,7.50
2019-03-28T19:10:21.566Z,7.50
2019-03-28T19:12:47.938Z,7.50
2019-03-28T19:15:14.486Z,7.51
2019-03-28T19:17:40.722Z,7.50
2019-03-28T19:20:08.212Z,7.49
2019-03-28T19:22:35.688Z,7.47
2019-03-28T19:25:04.287Z,7.47
2019-03-28T19:27:30.476Z,7.44
2019-03-28T19:29:56.629Z,7.46
2019-03-28T19:32:22.883Z,7.44
2019-03-28T19:34:49.065Z,7.43
2019-03-28T19:37:15.596Z,7.43
2019-03-28T19:39:41.783Z,7.41
2019-03-28T19:42:08.062Z,7.42
2019-03-28T19:44:34.738Z,7.42
2019-03-28T19:47:01.039Z,7.42
2019-03-28T19:49:27.251Z,7.42
2019-03-28T19:51:53.503Z,7.44
2019-03-28T19:54:19.631Z,7.42
2019-03-28T19:56:46.697Z,7.41
2019-03-28T19:59:12.922Z,7.42
2019-03-28T20:01:39.138Z,7.42
2019-03-28T20:04:05.331Z,7.42
2019-03-28T20:06:31.638Z,7.41
2019-03-28T20:08:57.805Z,7.41
2019-03-28T20:11:24.147Z,7.41
2019-03-28T20:13:50.508Z,7.42
2019-03-28T20:16:16.946Z,7.41
2019-03-28T20:18:43.310Z,7.43
2019-03-28T20:21:09.729Z,7.44
2019-03-28T20:23:36.088Z,7.45
2019-03-28T20:26:03.862Z,7.44
2019-03-28T20:28:30.521Z,7.45
2019-03-28T20:30:56.814Z,7.45
2019-03-28T20:33:25.069Z,7.45
2019-03-28T20:36:11.801Z,7.44
2019-03-28T20:38:19.457Z,7.45
2019-03-28T20:40:46.006Z,7.44
2019-03-28T20:43:12.239Z,7.43
2019-03-28T20:45:38.548Z,7.41
2019-03-28T20:48:05.710Z,7.38
2019-03-28T20:50:32.277Z,7.35
2019-03-28T20:52:58.501Z,7.34
2019-03-28T20:55:25.549Z,7.33
2019-03-28T20:57:53.190Z,7.34
2019-03-28T21:00:40.478Z,7.35
2019-03-28T21:03:07.275Z,7.36
2019-03-28T21:05:33.733Z,7.36
2019-03-28T21:07:59.964Z,7.37
2019-03-28T21:10:26.437Z,7.38
2019-03-28T21:12:53.250Z,7.40
2019-03-28T21:15:19.834Z,7.39
2019-03-28T21:17:46.353Z,7.38
2019-03-28T21:20:12.679Z,7.35
2019-03-28T21:22:39.110Z,7.33
2019-03-28T21:25:06.574Z,7.26
2019-03-28T21:27:33.149Z,7.20
2019-03-28T21:30:00.007Z,7.17
2019-03-28T21:32:26.306Z,7.12
2019-03-28T21:34:56.167Z,7.12
2019-03-28T21:37:20.607Z,7.11
2019-03-28T21:39:46.782Z,7.09
2019-03-28T21:42:13.056Z,7.11
2019-03-28T21:44:39.308Z,7.13
2019-03-28T21:47:05.565Z,7.12
2019-03-28T21:49:31.770Z,7.10
2019-03-28T21:51:57.990Z,7.13
2019-03-28T21:54:24.893Z,7.16
2019-03-28T21:56:51.130Z,7.19
2019-03-28T21:59:17.799Z,7.21
2019-03-28T22:01:44.088Z,7.23
2019-03-28T22:04:11.217Z,7.23
2019-03-28T22:06:42.886Z,7.24
2019-03-28T22:09:05.653Z,7.24
2019-03-28T22:11:33.898Z,7.24
2019-03-28T22:14:00.706Z,7.25
2019-03-28T22:16:27.846Z,7.26
2019-03-28T22:18:54.000Z,7.27
2019-03-28T22:21:20.165Z,7.25
2019-03-28T22:23:46.840Z,7.24
2019-03-28T22:26:12.986Z,7.25
2019-03-28T22:28:39.199Z,7.25
2019-03-28T22:31:05.362Z,7.25
2019-03-28T22:33:31.575Z,7.25
2019-03-28T22:35:57.784Z,7.27
2019-03-28T22:38:23.998Z,7.28
2019-03-28T22:40:50.148Z,7.28
2019-03-28T22:43:16.351Z,7.28
2019-03-28T22:45:43.810Z,7.29
2019-03-28T22:48:11.481Z,7.27
2019-03-28T22:50:39.310Z,7.24
2019-03-28T22:53:05.521Z,7.22
2019-03-28T22:55:31.614Z,7.22
2019-03-28T22:57:57.926Z,7.20
2019-03-28T23:00:26.185Z,7.21
2019-03-28T23:02:54.878Z,7.21
2019-03-28T23:05:21.324Z,7.22
2019-03-28T23:07:47.765Z,7.20
2019-03-28T23:10:14.453Z,7.21
2019-03-28T23:12:40.710Z,7.19
2019-03-28T23:15:07.726Z,7.19
2019-03-28T23:17:33.971Z,7.20
2019-03-28T23:20:00.349Z,7.13
2019-03-28T23:22:26.603Z,7.14
2019-03-28T23:24:52.835Z,7.12
2019-03-28T23:27:19.103Z,7.11
2019-03-28T23:29:45.357Z,7.11
2019-03-28T23:32:12.992Z,7.11
2019-03-28T23:34:39.592Z,7.14
2019-03-28T23:37:05.740Z,7.12
2019-03-28T23:39:31.939Z,7.08
2019-03-28T23:41:58.034Z,7.10
2019-03-28T23:44:24.241Z,7.11
2019-03-28T23:46:50.513Z,7.10
2019-03-28T23:49:16.751Z,7.09
2019-03-28T23:51:43.019Z,7.09
2019-03-28T23:54:09.529Z,7.07
2019-03-28T23:56:36.916Z,7.07
2019-03-28T23:59:03.610Z,7.06
